Terminal Aerodrome Forecast
Issued by NWS Chicago, IL

Home | Current Version | Previous Version | Text Only | Print | Product List | Glossary Off
Versions: 1 2 3 4 5 6 7 8 9 10 11 12 13 14 15 16 17 18 19 20 21 22 23 24 25 26 27

000
FTUS43 KLOT 211406 AAB
TAFRFD
TAF AMD
KRFD 211406Z 2114/2212 26006KT 6SM BR SCT006 OVC250
      TEMPO 2114/2115 BKN006
     FM211500 21007KT P6SM VCSH SCT006 SCT030 BKN100
      TEMPO 2115/2117 6SM -SHRA OVC040
     FM211700 20009KT P6SM SCT050 BKN150
     FM220300 19008KT P6SM VCTS BKN050CB
     FM220500 21009KT 4SM TSRA OVC035CB
      TEMPO 2205/2209 1SM TSRA OVC015CB
     FM220900 25008KT 6SM -SHRA OVC020=

USA.gov is the U.S. government's official web portal to all federal, state and local government web resources and services.